createdAt,value
2017-06-28T00:00:51.960Z,89.29
2017-06-28T00:02:04.765Z,89.19
2017-06-28T00:03:17.304Z,89.09
2017-06-28T00:04:29.240Z,89.09
2017-06-28T00:05:41.799Z,88.9
2017-06-28T00:06:54.364Z,88.43
2017-06-28T00:08:06.595Z,88.33
2017-06-28T00:09:19.130Z,89
2017-06-28T00:10:31.666Z,89.09
2017-06-28T00:11:44.233Z,89.19
2017-06-28T00:12:56.480Z,89.38
2017-06-28T00:14:08.739Z,89.38
2017-06-28T00:15:21.276Z,88.52
2017-06-28T00:16:33.838Z,89.09
2017-06-28T00:17:46.385Z,88.9
2017-06-28T00:18:58.961Z,89.19
2017-06-28T00:20:11.211Z,89.09
2017-06-28T00:21:23.152Z,89
2017-06-28T00:22:35.693Z,88.71
2017-06-28T00:23:48.248Z,88.71
2017-06-28T00:25:00.792Z,89
2017-06-28T00:26:12.730Z,88.9
2017-06-28T00:27:25.280Z,88.9
2017-06-28T00:28:37.243Z,89.19
2017-06-28T00:29:49.815Z,89.38
2017-06-28T00:31:02.347Z,89.34
2017-06-28T00:32:14.907Z,89.53
2017-06-28T00:33:27.161Z,89.43
2017-06-28T00:34:39.398Z,89.43
2017-06-28T00:35:51.952Z,89.19
2017-06-28T00:37:04.503Z,89.15
2017-06-28T00:38:17.045Z,89
2017-06-28T00:39:29.908Z,89.05
2017-06-28T00:40:42.157Z,89.43
2017-06-28T00:41:54.706Z,89.34
2017-06-28T00:43:07.257Z,89.15
2017-06-28T00:44:19.823Z,89.43
2017-06-28T00:45:32.396Z,89.15
2017-06-28T00:46:44.956Z,89.05
2017-06-28T00:47:57.211Z,88.86
2017-06-28T00:49:09.809Z,89.24
2017-06-28T00:50:22.394Z,89.15
2017-06-28T00:51:34.623Z,88.95
2017-06-28T00:52:47.189Z,88.86
2017-06-28T00:53:59.466Z,89.15
2017-06-28T00:55:11.382Z,89.15
2017-06-28T00:56:23.920Z,89.34
2017-06-28T00:57:36.467Z,89.15
2017-06-28T00:58:49.015Z,89.15
2017-06-28T01:00:01.247Z,89.15
2017-06-28T01:01:13.761Z,89.05
2017-06-28T01:02:26.030Z,89.05
2017-06-28T01:03:38.583Z,89.43
2017-06-28T01:04:51.145Z,89.24
2017-06-28T01:06:03.702Z,89.15
2017-06-28T01:07:16.248Z,89.15
2017-06-28T01:08:28.517Z,88.95
2017-06-28T01:09:41.051Z,89.05
2017-06-28T01:10:53.579Z,89.05
2017-06-28T01:12:06.133Z,89.05
2017-06-28T01:13:18.368Z,89.43
2017-06-28T01:14:30.620Z,88.95
2017-06-28T01:15:43.171Z,88.67
2017-06-28T01:16:55.433Z,88.95
2017-06-28T01:18:08.009Z,89.34
2017-06-28T01:19:20.553Z,89.15
2017-06-28T01:20:33.118Z,88.57
2017-06-28T01:21:45.668Z,88.57
2017-06-28T01:22:58.210Z,89.15
2017-06-28T01:24:10.738Z,88.86
2017-06-28T01:25:23.340Z,89.05
2017-06-28T01:26:35.904Z,89.15
2017-06-28T01:27:48.471Z,89.15
2017-06-28T01:29:00.443Z,89.24
2017-06-28T01:30:12.981Z,88.95
2017-06-28T01:31:25.239Z,89.24
2017-06-28T01:32:37.488Z,88.95
2017-06-28T01:33:49.749Z,88.95
2017-06-28T01:35:02.301Z,88.29
2017-06-28T01:36:14.819Z,88.95
2017-06-28T01:37:27.046Z,89.05
2017-06-28T01:38:39.307Z,88.81
2017-06-28T01:39:51.557Z,89.1
2017-06-28T01:41:04.111Z,89.2
2017-06-28T01:42:16.682Z,89.43
2017-06-28T01:43:29.250Z,89.48
2017-06-28T01:44:41.815Z,88.91
2017-06-28T01:45:54.365Z,89.1
2017-06-28T01:47:06.567Z,89.05
2017-06-28T01:48:19.135Z,89.48
2017-06-28T01:49:31.691Z,89.01
2017-06-28T01:50:44.244Z,88.91
2017-06-28T01:51:56.819Z,89.01
2017-06-28T01:53:09.367Z,89.48
2017-06-28T01:54:21.612Z,89.29
2017-06-28T01:55:33.887Z,89.48
2017-06-28T01:56:46.424Z,89.29
2017-06-28T01:57:58.949Z,88.91
2017-06-28T01:59:11.495Z,89.29
2017-06-28T02:00:23.735Z,89.39
2017-06-28T02:01:36.289Z,89.1
2017-06-28T02:02:48.524Z,88.81
2017-06-28T02:04:01.099Z,89.1
2017-06-28T02:05:13.055Z,88.81
2017-06-28T02:06:25.595Z,89.1
2017-06-28T02:07:38.142Z,89.2
2017-06-28T02:08:50.712Z,89.01
2017-06-28T02:10:03.253Z,89.29
2017-06-28T02:11:15.527Z,89.29
2017-06-28T02:12:28.054Z,89.58
2017-06-28T02:13:40.625Z,89.01
2017-06-28T02:14:52.859Z,88.24
2017-06-28T02:16:05.389Z,88.91
2017-06-28T02:17:17.638Z,89.2
2017-06-28T02:18:29.902Z,88.91
2017-06-28T02:19:42.463Z,88.91
2017-06-28T02:20:54.688Z,89.29
2017-06-28T02:22:07.242Z,89.1
2017-06-28T02:23:19.788Z,89.29
2017-06-28T02:24:32.333Z,89.48
2017-06-28T02:25:44.576Z,89.67
2017-06-28T02:26:57.146Z,89.58
2017-06-28T02:28:09.696Z,89.2
2017-06-28T02:29:21.931Z,89.39
2017-06-28T02:30:34.485Z,89.1
2017-06-28T02:31:47.063Z,88.62
2017-06-28T02:32:59.333Z,90.06
2017-06-28T02:34:11.905Z,88.91
2017-06-28T02:35:24.447Z,89.39
2017-06-28T02:36:36.671Z,89.58
2017-06-28T02:37:48.927Z,89.2
2017-06-28T02:39:01.473Z,89.48
2017-06-28T02:40:14.062Z,89.87
2017-06-28T02:41:26.619Z,90.06
2017-06-28T02:42:39.176Z,89.87
2017-06-28T02:43:51.740Z,90.16
2017-06-28T02:45:04.310Z,89.77
2017-06-28T02:46:16.859Z,89.87
2017-06-28T02:47:29.410Z,90.25
2017-06-28T02:48:41.962Z,90.06
2017-06-28T02:49:54.545Z,89.77
2017-06-28T02:51:07.107Z,89.77
2017-06-28T02:52:19.669Z,90.25
2017-06-28T02:53:32.211Z,90.16
2017-06-28T02:54:44.756Z,89.39
2017-06-28T02:55:57.028Z,89.87
2017-06-28T02:57:09.571Z,89.67
2017-06-28T02:58:22.100Z,89.67
2017-06-28T02:59:34.715Z,90.16
2017-06-28T03:00:47.507Z,90.34
2017-06-28T03:02:00.050Z,90.53
2017-06-28T03:03:11.706Z,90.25
2017-06-28T03:04:24.288Z,91.2
2017-06-28T03:05:36.816Z,90.06
2017-06-28T03:06:49.070Z,89.87
2017-06-28T03:08:01.635Z,90.63
2017-06-28T03:09:14.161Z,90.25
2017-06-28T03:10:26.722Z,90.92
2017-06-28T03:11:39.267Z,90.63
2017-06-28T03:12:51.819Z,90.44
2017-06-28T03:14:04.384Z,90.53
2017-06-28T03:15:16.932Z,89.77
2017-06-28T03:16:29.483Z,90.25
2017-06-28T03:17:42.049Z,90.06
2017-06-28T03:18:54.592Z,89.67
2017-06-28T03:20:06.245Z,89.77
2017-06-28T03:21:18.791Z,90.25
2017-06-28T03:22:31.638Z,89.87
2017-06-28T03:23:44.201Z,89.48
2017-06-28T03:24:56.446Z,89.67
2017-06-28T03:26:09.017Z,89.72
2017-06-28T03:27:21.247Z,89.58
2017-06-28T03:28:33.493Z,89.53
2017-06-28T03:29:46.031Z,89.62
2017-06-28T03:30:58.307Z,89.91
2017-06-28T03:32:10.819Z,90.01
2017-06-28T03:33:23.055Z,89.34
2017-06-28T03:34:35.299Z,89.15
2017-06-28T03:35:47.860Z,89.53
2017-06-28T03:37:00.406Z,89.91
2017-06-28T03:38:12.958Z,89.05
2017-06-28T03:39:25.804Z,89.53
2017-06-28T03:40:38.348Z,89.34
2017-06-28T03:41:50.893Z,88.86
2017-06-28T03:43:03.435Z,89.34
2017-06-28T03:44:16.259Z,89.43
2017-06-28T03:45:28.802Z,88.95
2017-06-28T03:46:41.324Z,89.48
2017-06-28T03:47:53.873Z,89.15
2017-06-28T03:49:06.422Z,89
2017-06-28T03:50:18.924Z,89.58
2017-06-28T03:51:31.468Z,89
2017-06-28T03:52:44.034Z,88.9
2017-06-28T03:53:56.602Z,89.58
2017-06-28T03:55:08.860Z,89.09
2017-06-28T03:56:21.099Z,89.29
2017-06-28T03:57:33.641Z,89.09
2017-06-28T03:58:46.165Z,88.81
2017-06-28T03:59:58.724Z,88.62
2017-06-28T04:01:11.280Z,89.09
2017-06-28T04:02:23.823Z,88.52
2017-06-28T04:03:36.366Z,88.62
2017-06-28T04:04:48.908Z,88.9
2017-06-28T04:06:01.417Z,89.04
2017-06-28T04:07:13.961Z,88.9
2017-06-28T04:08:26.207Z,89.33
2017-06-28T04:09:38.733Z,88.56
2017-06-28T04:10:51.275Z,88.66
2017-06-28T04:12:03.523Z,89.23
2017-06-28T04:13:15.783Z,88.56
2017-06-28T04:14:28.332Z,88.37
2017-06-28T04:15:40.871Z,89.33
2017-06-28T04:16:53.395Z,88.95
2017-06-28T04:18:05.921Z,89.14
2017-06-28T04:19:18.447Z,88.56
2017-06-28T04:20:30.714Z,88.71
2017-06-28T04:21:43.266Z,89.04
2017-06-28T04:22:55.529Z,89.04
2017-06-28T04:24:07.743Z,88.62
2017-06-28T04:25:20.353Z,89.29
2017-06-28T04:26:31.985Z,88.47
2017-06-28T04:27:44.540Z,89.52
2017-06-28T04:28:56.790Z,88.9
2017-06-28T04:30:09.051Z,88.43
2017-06-28T04:31:21.327Z,89.38
2017-06-28T04:32:33.874Z,89
2017-06-28T04:33:46.422Z,89.19
2017-06-28T04:34:58.651Z,88.9
2017-06-28T04:36:10.937Z,89.38
2017-06-28T04:37:23.504Z,89.19
2017-06-28T04:38:35.460Z,88.71
2017-06-28T04:39:48.025Z,89.58
2017-06-28T04:41:00.288Z,89.52
2017-06-28T04:42:12.866Z,89.09
2017-06-28T04:43:25.443Z,89.09
2017-06-28T04:44:37.711Z,88.9
2017-06-28T04:45:50.244Z,89.48
2017-06-28T04:47:02.797Z,89.19
2017-06-28T04:48:15.322Z,89.67
2017-06-28T04:49:27.888Z,89.38
2017-06-28T04:50:40.467Z,89.95
2017-06-28T04:51:53.010Z,89.76
2017-06-28T04:53:05.576Z,89.38
2017-06-28T04:54:18.126Z,89.19
2017-06-28T04:55:30.699Z,89.58
2017-06-28T04:56:43.219Z,89.72
2017-06-28T04:57:55.789Z,90.34
2017-06-28T04:59:08.332Z,90
2017-06-28T05:00:21.186Z,90.48
2017-06-28T05:01:33.447Z,89.52
2017-06-28T05:02:45.993Z,89.52
2017-06-28T05:03:58.523Z,89.62
2017-06-28T05:05:11.094Z,89.62
2017-06-28T05:06:23.353Z,89.72
2017-06-28T05:07:35.878Z,90
2017-06-28T05:08:48.424Z,90
2017-06-28T05:10:00.691Z,89.72
2017-06-28T05:11:13.240Z,89.43
2017-06-28T05:12:25.836Z,89.43
2017-06-28T05:13:38.093Z,89.81
2017-06-28T05:14:50.657Z,89.14
2017-06-28T05:16:03.221Z,89.33
2017-06-28T05:17:15.777Z,89.47
2017-06-28T05:18:28.044Z,89.47
2017-06-28T05:19:40.289Z,89.47
2017-06-28T05:20:52.861Z,88.51
2017-06-28T05:22:05.700Z,89.28
2017-06-28T05:23:18.271Z,88.99
2017-06-28T05:24:30.791Z,89.32
2017-06-28T05:25:43.348Z,88.75
2017-06-28T05:26:55.925Z,87.6
2017-06-28T05:28:08.480Z,87.7
2017-06-28T05:29:20.722Z,87.55
2017-06-28T05:30:33.256Z,87.26
2017-06-28T05:31:45.506Z,87.35
2017-06-28T05:32:57.767Z,86.68
2017-06-28T05:34:10.318Z,86.49
2017-06-28T05:35:22.858Z,86.58
2017-06-28T05:36:34.775Z,87.64
2017-06-28T05:37:47.322Z,87.45
2017-06-28T05:38:59.896Z,87.35
2017-06-28T05:40:12.447Z,86.88
2017-06-28T05:41:24.998Z,87.07
2017-06-28T05:42:37.238Z,87.45
2017-06-28T05:43:50.087Z,86.88
2017-06-28T05:45:02.633Z,86.88
2017-06-28T05:46:14.872Z,86.78
2017-06-28T05:47:27.396Z,86.78
2017-06-28T05:48:39.937Z,86.97
2017-06-28T05:49:52.193Z,87.4
2017-06-28T05:51:04.755Z,87.11
2017-06-28T05:52:16.695Z,86.63
2017-06-28T05:53:29.247Z,86.54
2017-06-28T05:54:41.489Z,86.82
2017-06-28T05:55:54.019Z,86.72
2017-06-28T05:57:06.568Z,86.54
2017-06-28T05:58:19.117Z,86.82
2017-06-28T05:59:31.698Z,86.82
2017-06-28T06:00:44.226Z,86.54
2017-06-28T06:01:56.772Z,86.82
2017-06-28T06:03:09.047Z,86.92
2017-06-28T06:04:21.586Z,86.72
2017-06-28T06:05:34.406Z,86.72
2017-06-28T06:06:46.971Z,87.11
2017-06-28T06:07:59.216Z,86.72
2017-06-28T06:09:11.744Z,86.82
2017-06-28T06:10:23.998Z,86.92
2017-06-28T06:11:36.532Z,86.44
2017-06-28T06:12:49.059Z,86.25
2017-06-28T06:14:01.628Z,86.48
2017-06-28T06:15:13.880Z,86.1
2017-06-28T06:16:26.453Z,86.38
2017-06-28T06:17:39.020Z,86.77
2017-06-28T06:18:51.589Z,86.96
2017-06-28T06:20:04.136Z,86.38
2017-06-28T06:21:16.674Z,86.19
2017-06-28T06:22:29.224Z,85.95
2017-06-28T06:23:41.174Z,85.75
2017-06-28T06:24:53.420Z,85.57
2017-06-28T06:26:05.962Z,84.94
2017-06-28T06:27:18.536Z,84.94
2017-06-28T06:28:30.795Z,84.3
2017-06-28T06:29:43.345Z,84.16
2017-06-28T06:30:55.578Z,83.19
2017-06-28T06:32:08.137Z,82.17
2017-06-28T06:33:20.691Z,82.12
2017-06-28T06:34:33.265Z,81.68
2017-06-28T06:35:45.788Z,80.62
2017-06-28T06:36:58.033Z,79.98
2017-06-28T06:38:10.593Z,79.69
2017-06-28T06:39:23.134Z,78.58
2017-06-28T06:40:35.371Z,78.19
2017-06-28T06:41:47.938Z,78.71
2017-06-28T06:43:00.183Z,76.98
2017-06-28T06:44:12.432Z,76.63
2017-06-28T06:45:25.013Z,76.72
2017-06-28T06:46:36.968Z,75.7
2017-06-28T06:47:49.541Z,72.36
2017-06-28T06:49:01.813Z,72.3
2017-06-28T06:50:14.084Z,71.72
2017-06-28T06:51:26.647Z,68.66
2017-06-28T06:52:39.206Z,68.88
2017-06-28T06:53:51.748Z,67.63
2017-06-28T06:55:04.289Z,68.91
2017-06-28T06:56:16.563Z,67.27
2017-06-28T06:57:29.106Z,67.21
2017-06-28T06:58:41.677Z,65.5
2017-06-28T06:59:54.243Z,64.17
2017-06-28T07:01:06.820Z,64.47
2017-06-28T07:02:19.069Z,63.13
2017-06-28T07:03:31.645Z,61.32
2017-06-28T07:04:44.214Z,61.35
2017-06-28T07:05:56.778Z,60.28
2017-06-28T07:07:09.044Z,59.8
2017-06-28T07:08:21.315Z,59.54
2017-06-28T07:09:33.865Z,59.25
2017-06-28T07:10:46.452Z,58.79
2017-06-28T07:11:59.036Z,57.07
2017-06-28T07:13:11.306Z,56.87
2017-06-28T07:14:23.887Z,58.04
2017-06-28T07:15:36.147Z,57.36
2017-06-28T07:16:48.090Z,57.39
2017-06-28T07:18:00.639Z,57
2017-06-28T07:19:12.583Z,56.45
2017-06-28T07:20:25.174Z,56.64
2017-06-28T07:21:37.748Z,56.47
2017-06-28T07:22:50.004Z,56.47
2017-06-28T07:24:02.240Z,55.43
2017-06-28T07:25:14.803Z,54.65
2017-06-28T07:26:27.060Z,53.8
2017-06-28T07:27:39.660Z,53.11
2017-06-28T07:28:52.228Z,53.21
2017-06-28T07:30:04.223Z,53.05
2017-06-28T07:31:16.169Z,52.75
2017-06-28T07:32:28.744Z,51.97
2017-06-28T07:33:41.004Z,52.95
2017-06-28T07:34:53.537Z,53.34
2017-06-28T07:36:06.128Z,52.17
2017-06-28T07:37:18.701Z,52.85
2017-06-28T07:38:30.692Z,52.68
2017-06-28T07:39:42.971Z,53.07
2017-06-28T07:40:55.526Z,52.87
2017-06-28T07:42:08.076Z,52.31
2017-06-28T07:43:20.055Z,51.92
2017-06-28T07:44:32.621Z,52.05
2017-06-28T07:45:45.198Z,51.37
2017-06-28T07:46:57.487Z,51.37
2017-06-28T07:48:09.760Z,51.56
2017-06-28T07:49:22.324Z,51.63
2017-06-28T07:50:34.601Z,52.05
2017-06-28T07:51:47.171Z,52.25
2017-06-28T07:52:59.444Z,51.63
2017-06-28T07:54:12.021Z,51.46
2017-06-28T07:55:23.664Z,51.76
2017-06-28T07:56:36.227Z,51.98
2017-06-28T07:57:48.804Z,51.88
2017-06-28T07:59:01.071Z,50.61
2017-06-28T08:00:13.015Z,49.95
2017-06-28T08:01:25.594Z,49.92
2017-06-28T08:02:37.560Z,49.07
2017-06-28T08:03:49.838Z,49.63
2017-06-28T08:05:02.427Z,50.22
2017-06-28T08:06:14.744Z,49.82
2017-06-28T08:07:27.023Z,49.51
2017-06-28T08:08:39.573Z,49.53
2017-06-28T08:09:51.865Z,49.51
2017-06-28T08:11:04.438Z,49.71
2017-06-28T08:12:16.707Z,50.22
2017-06-28T08:13:29.280Z,50.02
2017-06-28T08:14:41.893Z,48.87
2017-06-28T08:15:53.886Z,48.97
2017-06-28T08:17:06.158Z,49.07
2017-06-28T08:18:18.113Z,48.6
2017-06-28T08:19:30.380Z,48.5
2017-06-28T08:20:42.953Z,48.99
2017-06-28T08:21:55.241Z,49.58
2017-06-28T08:23:07.844Z,49.7
2017-06-28T08:24:19.813Z,48.53
2017-06-28T08:25:32.371Z,48.43
2017-06-28T08:26:44.349Z,49.51
2017-06-28T08:27:56.949Z,49.21
2017-06-28T08:29:08.921Z,48.82
2017-06-28T08:30:21.187Z,49.09
2017-06-28T08:31:33.463Z,49.58
2017-06-28T08:32:46.039Z,48.99
2017-06-28T08:33:58.322Z,49.6
2017-06-28T08:35:10.597Z,49.51
2017-06-28T08:36:22.900Z,49.8
2017-06-28T08:37:35.771Z,49.82
2017-06-28T08:38:48.366Z,48.65
2017-06-28T08:40:00.916Z,47.69
2017-06-28T08:41:13.179Z,47.99
2017-06-28T08:42:25.755Z,47.77
2017-06-28T08:43:38.301Z,47.87
2017-06-28T08:44:50.899Z,47.89
2017-06-28T08:46:03.166Z,47.69
2017-06-28T08:47:15.441Z,47.52
2017-06-28T08:48:28.034Z,47.6
2017-06-28T08:49:40.621Z,47.89
2017-06-28T08:50:52.902Z,47.75
2017-06-28T08:52:05.522Z,48.33
2017-06-28T08:53:17.800Z,48.92
2017-06-28T08:54:30.082Z,48.53
2017-06-28T08:55:42.658Z,48.65
2017-06-28T08:56:54.909Z,48.85
2017-06-28T08:58:07.505Z,48.46
2017-06-28T08:59:20.097Z,47.77
2017-06-28T09:00:32.389Z,48.46
2017-06-28T09:01:44.642Z,48.75
2017-06-28T09:02:57.240Z,48.53
2017-06-28T09:04:09.501Z,48.72
2017-06-28T09:05:21.751Z,49.68
2017-06-28T09:06:34.348Z,50.29
2017-06-28T09:07:46.625Z,49.9
2017-06-28T09:08:59.163Z,49.11
2017-06-28T09:10:11.428Z,49.11
2017-06-28T09:11:23.970Z,49.11
2017-06-28T09:12:36.548Z,49.11
2017-06-28T09:13:49.098Z,48.94
2017-06-28T09:15:01.388Z,48.85
2017-06-28T09:16:13.342Z,48.58
2017-06-28T09:17:25.311Z,48.75
2017-06-28T09:18:37.878Z,48.46
2017-06-28T09:19:50.483Z,48.77
2017-06-28T09:21:03.062Z,47.79
2017-06-28T09:22:15.318Z,47.81
2017-06-28T09:23:27.872Z,48.28
2017-06-28T09:24:40.464Z,48.48
2017-06-28T09:25:53.028Z,48.65
2017-06-28T09:27:05.325Z,48.48
2017-06-28T09:28:17.929Z,49.07
2017-06-28T09:29:30.191Z,47.72
2017-06-28T09:30:42.818Z,47.91
2017-06-28T09:31:55.387Z,48.11
2017-06-28T09:33:07.379Z,47.62
2017-06-28T09:34:19.943Z,48.8
2017-06-28T09:35:32.521Z,47.74
2017-06-28T09:36:45.100Z,48.72
2017-06-28T09:37:57.686Z,46.86
2017-06-28T09:39:09.339Z,47.06
2017-06-28T09:40:21.904Z,46.98
2017-06-28T09:41:34.180Z,47.37
2017-06-28T09:42:46.449Z,47.64
2017-06-28T09:43:59.044Z,47.91
2017-06-28T09:45:11.645Z,47.72
2017-06-28T09:46:23.905Z,47.62
2017-06-28T09:47:36.157Z,48.5
2017-06-28T09:48:48.428Z,48.8
2017-06-28T09:50:00.401Z,47.84
2017-06-28T09:51:12.964Z,47.84
2017-06-28T09:52:24.942Z,48.33
2017-06-28T09:53:37.552Z,47.94
2017-06-28T09:54:50.152Z,48.13
2017-06-28T09:56:02.135Z,47.67
2017-06-28T09:57:14.701Z,47.96
2017-06-28T09:58:26.986Z,46.78
2017-06-28T09:59:39.542Z,47.2
2017-06-28T10:00:51.810Z,46.81
2017-06-28T10:02:04.378Z,46.93
2017-06-28T10:03:17.010Z,46.73
2017-06-28T10:04:29.315Z,45.16
2017-06-28T10:05:41.871Z,45.65
2017-06-28T10:06:53.844Z,46.24
2017-06-28T10:08:06.439Z,45.75
2017-06-28T10:09:19.031Z,45.67
2017-06-28T10:10:31.326Z,45.67
2017-06-28T10:11:43.284Z,45.1
2017-06-28T10:12:55.256Z,44.52
2017-06-28T10:14:07.819Z,45.09
2017-06-28T10:15:20.092Z,45.7
2017-06-28T10:16:32.661Z,44.59
2017-06-28T10:17:45.277Z,45.75
2017-06-28T10:18:57.602Z,46.53
2017-06-28T10:20:10.190Z,46.53
2017-06-28T10:21:22.722Z,46.88
2017-06-28T10:22:34.987Z,47.17
2017-06-28T10:23:47.610Z,47.27
2017-06-28T10:25:00.184Z,48.03
2017-06-28T10:26:12.448Z,47.84
2017-06-28T10:27:25.054Z,47.81
2017-06-28T10:28:37.622Z,48.9
2017-06-28T10:29:50.233Z,48.87
2017-06-28T10:31:02.812Z,48.87
2017-06-28T10:32:14.777Z,48.3
2017-06-28T10:33:26.457Z,48.48
2017-06-28T10:34:38.717Z,49.07
2017-06-28T10:35:51.291Z,48.68
2017-06-28T10:37:03.865Z,48.58
2017-06-28T10:38:16.454Z,48.7
2017-06-28T10:39:28.410Z,49.65
2017-06-28T10:40:40.398Z,48.5
2017-06-28T10:41:52.100Z,48.8
2017-06-28T10:43:04.671Z,48.9
2017-06-28T10:44:17.246Z,48.97
2017-06-28T10:45:29.801Z,49.75
2017-06-28T10:46:42.412Z,48.6
2017-06-28T10:47:54.682Z,48.7
2017-06-28T10:49:07.231Z,49.16
2017-06-28T10:50:19.801Z,48.77
2017-06-28T10:51:32.071Z,49.07
2017-06-28T10:52:44.661Z,49.85
2017-06-28T10:53:56.630Z,49.19
2017-06-28T10:55:09.198Z,49.68
2017-06-28T10:56:21.768Z,49.11
2017-06-28T10:57:34.048Z,48.85
2017-06-28T10:58:46.640Z,48.47
2017-06-28T10:59:58.881Z,47.81
2017-06-28T11:01:11.430Z,46.93
2017-06-28T11:02:23.698Z,46.34
2017-06-28T11:03:35.975Z,46.63
2017-06-28T11:04:48.253Z,46.63
2017-06-28T11:06:00.790Z,46.26
2017-06-28T11:07:13.063Z,47.83
2017-06-28T11:08:25.642Z,45.99
2017-06-28T11:09:37.951Z,46.5
2017-06-28T11:10:50.519Z,45.13
2017-06-28T11:12:03.068Z,45.84
2017-06-28T11:13:15.344Z,44.66
2017-06-28T11:14:27.968Z,45.05
2017-06-28T11:15:40.531Z,44.46
2017-06-28T11:16:52.834Z,44.07
2017-06-28T11:18:05.402Z,44.66
2017-06-28T11:19:17.673Z,45.25
2017-06-28T11:20:30.235Z,44.46
2017-06-28T11:21:42.875Z,44.46
2017-06-28T11:22:55.420Z,44.36
2017-06-28T11:24:07.682Z,44.17
2017-06-28T11:25:20.228Z,45.62
2017-06-28T11:26:32.499Z,45.3
2017-06-28T11:27:45.069Z,45.99
2017-06-28T11:28:57.042Z,46.28
2017-06-28T11:30:09.631Z,46.26
2017-06-28T11:31:22.150Z,47.52
2017-06-28T11:32:34.728Z,46.83
2017-06-28T11:33:47.295Z,48.57
2017-06-28T11:34:59.270Z,48.38
2017-06-28T11:36:11.834Z,48.94
2017-06-28T11:37:24.390Z,49.9
2017-06-28T11:38:36.978Z,49.04
2017-06-28T11:39:49.570Z,49.14
2017-06-28T11:41:01.867Z,47.49
2017-06-28T11:42:14.691Z,47.89
2017-06-28T11:43:27.287Z,47.03
2017-06-28T11:44:39.866Z,47.81
2017-06-28T11:45:52.430Z,47.15
2017-06-28T11:47:05.007Z,47.25
2017-06-28T11:48:17.600Z,47.25
2017-06-28T11:49:30.189Z,46.46
2017-06-28T11:50:42.791Z,46.75
2017-06-28T11:51:55.354Z,47.25
2017-06-28T11:53:07.984Z,46.66
2017-06-28T11:54:20.583Z,46.09
2017-06-28T11:55:32.849Z,45.79
2017-06-28T11:56:45.441Z,46.21
2017-06-28T11:57:57.692Z,45.74
2017-06-28T11:59:09.983Z,44.76
2017-06-28T12:00:22.610Z,44.85
2017-06-28T12:01:35.201Z,45.52
2017-06-28T12:02:47.472Z,46.01
2017-06-28T12:04:00.051Z,46.88
2017-06-28T12:05:12.616Z,47.88
2017-06-28T12:06:25.180Z,47.71
2017-06-28T12:07:37.755Z,48
2017-06-28T12:08:50.019Z,47.31
2017-06-28T12:10:01.977Z,47.31
2017-06-28T12:11:14.523Z,44.88
2017-06-28T12:12:26.789Z,44.9
2017-06-28T12:13:39.340Z,44.33
2017-06-28T12:14:51.284Z,44.45
2017-06-28T12:16:03.528Z,43.46
2017-06-28T12:17:16.126Z,44.53
2017-06-28T12:18:28.095Z,45.51
2017-06-28T12:19:40.686Z,44.53
2017-06-28T12:20:52.933Z,44.23
2017-06-28T12:22:05.508Z,43.93
2017-06-28T12:23:17.778Z,43.82
2017-06-28T12:24:30.055Z,44.68
2017-06-28T12:25:42.642Z,44.58
2017-06-28T12:26:54.621Z,44.29
2017-06-28T12:28:07.187Z,44.56
2017-06-28T12:29:19.441Z,44.95
2017-06-28T12:30:32.010Z,45.62
2017-06-28T12:31:44.302Z,46.48
2017-06-28T12:32:56.278Z,47.07
2017-06-28T12:34:08.241Z,47.27
2017-06-28T12:35:20.821Z,48.35
2017-06-28T12:36:33.403Z,46.6
2017-06-28T12:37:45.657Z,46.48
2017-06-28T12:38:57.949Z,47.78
2017-06-28T12:40:10.518Z,47.78
2017-06-28T12:41:22.791Z,47.88
2017-06-28T12:42:35.363Z,47
2017-06-28T12:43:47.985Z,46.62
2017-06-28T12:45:00.562Z,46.72
2017-06-28T12:46:12.857Z,45.54
2017-06-28T12:47:25.420Z,46.33
2017-06-28T12:48:38.019Z,47.91
2017-06-28T12:49:50.291Z,47
2017-06-28T12:51:02.569Z,48.08
2017-06-28T12:52:15.077Z,46.72
2017-06-28T12:53:27.649Z,46.03
2017-06-28T12:54:39.913Z,46.62
2017-06-28T12:55:52.516Z,46.43
2017-06-28T12:57:04.846Z,47.98
2017-06-28T12:58:17.687Z,47.58
2017-06-28T12:59:30.275Z,47.78
2017-06-28T13:00:42.872Z,46.5
2017-06-28T13:01:54.843Z,46.58
2017-06-28T13:03:07.397Z,47.07
2017-06-28T13:04:19.974Z,46.78
2017-06-28T13:05:32.525Z,48.03
2017-06-28T13:06:44.776Z,48.82
2017-06-28T13:07:57.059Z,48.82
2017-06-28T13:09:09.030Z,48.6
2017-06-28T13:10:21.596Z,49.19
2017-06-28T13:11:34.164Z,49.48
2017-06-28T13:12:46.434Z,51.52
2017-06-28T13:13:58.983Z,49.82
2017-06-28T13:15:11.248Z,49.33
2017-06-28T13:16:23.526Z,48.94
2017-06-28T13:17:35.197Z,48.63
2017-06-28T13:18:47.464Z,48.72
2017-06-28T13:20:00.041Z,49.8
2017-06-28T13:21:12.631Z,50.78
2017-06-28T13:22:25.184Z,50.78
2017-06-28T13:23:37.420Z,51.15
2017-06-28T13:24:49.997Z,52.13
2017-06-28T13:26:02.297Z,53.01
2017-06-28T13:27:14.265Z,53.99
2017-06-28T13:28:26.814Z,52.69
2017-06-28T13:29:38.757Z,52.69
2017-06-28T13:30:51.308Z,50.73
2017-06-28T13:32:03.887Z,51
2017-06-28T13:33:16.441Z,51.86
2017-06-28T13:34:28.711Z,52.64
2017-06-28T13:35:41.303Z,53.88
2017-06-28T13:36:53.881Z,53.59
2017-06-28T13:38:06.169Z,53.47
2017-06-28T13:39:18.441Z,55.62
2017-06-28T13:40:31.012Z,57.64
2017-06-28T13:41:43.262Z,57.23
2017-06-28T13:42:55.533Z,57.23
2017-06-28T13:44:07.813Z,58.07
2017-06-28T13:45:20.106Z,58.63
2017-06-28T13:46:32.355Z,58.73
2017-06-28T13:47:44.909Z,58.7
2017-06-28T13:48:56.559Z,60.94
2017-06-28T13:50:09.112Z,62.38
2017-06-28T13:51:21.664Z,64.81
2017-06-28T13:52:34.206Z,67.12
2017-06-28T13:53:46.467Z,68.97
2017-06-28T13:54:58.711Z,71.27
2017-06-28T13:56:10.688Z,74.65
2017-06-28T13:57:23.267Z,76.45
2017-06-28T13:59:05.056Z,79.66
2017-06-28T14:00:17.625Z,81.86
2017-06-28T14:01:29.603Z,83.96
2017-06-28T14:02:42.144Z,83.86
2017-06-28T14:03:54.704Z,85.24
2017-06-28T14:05:06.957Z,85.68
2017-06-28T14:06:19.508Z,86.12
2017-06-28T14:07:32.058Z,86.86
2017-06-28T14:08:44.620Z,86.52
2017-06-28T14:09:56.887Z,87.16
2017-06-28T14:11:09.133Z,87.41
2017-06-28T14:12:21.661Z,87.36
2017-06-28T14:13:34.225Z,87.95
2017-06-28T14:14:46.796Z,88.67
2017-06-28T14:15:59.350Z,89.69
2017-06-28T14:17:11.892Z,89.4
2017-06-28T14:18:24.448Z,90.03
2017-06-28T14:19:37.041Z,90.33
2017-06-28T14:20:49.284Z,89.99
2017-06-28T14:22:01.833Z,90.19
2017-06-28T14:23:14.125Z,90.33
2017-06-28T14:24:26.741Z,90.53
2017-06-28T14:25:38.984Z,91.49
2017-06-28T14:26:51.559Z,91.44
2017-06-28T14:28:03.807Z,91.93
2017-06-28T14:29:15.752Z,91.54
2017-06-28T14:30:27.707Z,92.12
2017-06-28T14:31:40.270Z,92.7
2017-06-28T14:32:52.842Z,92.36
2017-06-28T14:34:05.106Z,92.5
2017-06-28T14:35:17.355Z,92.75
2017-06-28T14:36:29.906Z,93.33
2017-06-28T14:37:42.172Z,93.71
2017-06-28T14:38:54.426Z,93.62
2017-06-28T14:40:06.089Z,93.52
2017-06-28T14:41:18.638Z,93.81
2017-06-28T14:42:31.211Z,94
2017-06-28T14:43:43.770Z,94.39
2017-06-28T14:44:56.341Z,94.39
2017-06-28T14:46:07.966Z,94
2017-06-28T14:47:20.221Z,93.91
2017-06-28T14:48:32.491Z,94.87
2017-06-28T14:49:45.058Z,94.39
2017-06-28T14:50:57.600Z,95.06
2017-06-28T14:52:10.178Z,94.68
2017-06-28T14:53:22.448Z,94.68
2017-06-28T14:54:34.994Z,94.78
2017-06-28T14:55:47.558Z,94.96
2017-06-28T14:56:59.807Z,94
2017-06-28T14:58:12.356Z,94.1
2017-06-28T14:59:24.320Z,94.1
2017-06-28T15:00:36.577Z,94.2
2017-06-28T15:01:49.122Z,93.81
2017-06-28T15:03:01.685Z,93.52
2017-06-28T15:04:13.949Z,93.71
2017-06-28T15:05:26.484Z,94
2017-06-28T15:06:39.031Z,93.81
2017-06-28T15:07:51.575Z,94.29
2017-06-28T15:09:04.149Z,93.91
2017-06-28T15:10:16.740Z,94.78
2017-06-28T15:11:29.304Z,94.78
2017-06-28T15:12:41.879Z,95.26
2017-06-28T15:13:54.457Z,95.01
2017-06-28T15:15:07.025Z,95.4
2017-06-28T15:16:19.290Z,95.69
2017-06-28T15:17:31.538Z,95.59
2017-06-28T15:18:43.808Z,95.69
2017-06-28T15:19:55.780Z,95.64
2017-06-28T15:21:08.342Z,95.06
2017-06-28T15:22:20.000Z,94.96
2017-06-28T15:23:32.546Z,95.16
2017-06-28T15:24:44.813Z,94.77
2017-06-28T15:25:56.760Z,94.77
2017-06-28T15:27:09.050Z,94.2
2017-06-28T15:28:21.006Z,93.9
2017-06-28T15:29:33.300Z,93.32
2017-06-28T15:30:45.897Z,93.04
2017-06-28T15:31:58.468Z,93.04
2017-06-28T15:33:11.044Z,92.7
2017-06-28T15:34:23.300Z,92.6
2017-06-28T15:35:35.851Z,92.6
2017-06-28T15:36:48.422Z,92.6
2017-06-28T15:38:00.995Z,92.99